Time;durP1;ratioP1;P1;durP2;ratioP2;P2;SDS_P1;SDS_P2;PMS_P1;PMS_P2;Temp;Humidity;BMP_temperature;BMP_pressure;BME280_temperature;BME280_humidity;BME280_pressure;Samples;Min_cycle;Max_cycle;Signal;HPM_P1;HPM_P2
2024/01/05 00:02:49;;;;;;;7.40;1.75;;;;;;;8.88;100.00;98626.34;12200443;19;20039;-80
2024/01/05 00:06:51;;;;;;;7.00;2.00;;;;;;;8.87;100.00;98616.47;12178634;19;20324;-82
2024/01/05 00:10:53;;;;;;;9.27;1.60;;;;;;;8.84;100.00;98617.00;12200332;19;20003;-82
2024/01/05 00:14:54;;;;;;;7.60;1.70;;;;;;;8.88;100.00;98605.22;12200461;19;20077;-82
2024/01/05 00:18:56;;;;;;;6.50;2.00;;;;;;;8.89;100.00;98608.78;12180853;19;20010;-82
2024/01/05 00:22:58;;;;;;;10.10;1.70;;;;;;;8.91;100.00;98590.09;12198430;19;20014;-81
2024/01/05 00:27:00;;;;;;;5.77;1.07;;;;;;;8.90;100.00;98583.78;12198817;19;20251;-81
2024/01/05 00:31:03;;;;;;;6.77;1.50;;;;;;;8.87;100.00;98583.50;12171988;19;20035;-81
2024/01/05 00:35:05;;;;;;;7.43;1.73;;;;;;;8.81;100.00;98590.91;12196162;19;20007;-80
2024/01/05 00:39:07;;;;;;;11.10;1.92;;;;;;;8.79;100.00;98575.78;12194597;19;20133;-81
2024/01/05 00:43:09;;;;;;;4.85;1.27;;;;;;;8.72;100.00;98567.78;12176868;19;20006;-82
2024/01/05 00:47:11;;;;;;;8.02;2.20;;;;;;;8.74;100.00;98573.00;12198381;19;20002;-80
2024/01/05 00:51:13;;;;;;;8.52;1.60;;;;;;;8.73;100.00;98566.69;12198002;19;20944;-82
2024/01/05 00:55:14;;;;;;;10.80;1.73;;;;;;;8.74;100.00;98567.50;12178392;19;20011;-83
2024/01/05 00:59:20;;;;;;;6.67;1.50;;;;;;;8.73;100.00;98561.19;12198784;19;20013;-83
2024/01/05 01:03:21;;;;;;;8.38;1.42;;;;;;;8.77;100.00;98558.72;12200812;19;20466;-82
2024/01/05 01:07:23;;;;;;;6.60;1.30;;;;;;;8.75;100.00;98553.53;12177372;19;20742;-82
2024/01/05 01:11:25;;;;;;;8.45;1.58;;;;;;;8.74;100.00;98551.84;12196743;19;20002;-82
2024/01/05 01:15:29;;;;;;;8.40;1.30;;;;;;;8.72;100.00;98551.31;12201361;19;20474;-83
2024/01/05 01:19:31;;;;;;;9.17;1.93;;;;;;;8.75;100.00;98542.53;12177988;19;20010;-83
2024/01/05 01:23:33;;;;;;;6.75;1.60;;;;;;;8.78;100.00;98543.94;12199017;19;20029;-82
2024/01/05 01:27:35;;;;;;;8.33;1.37;;;;;;;8.78;100.00;98533.75;12175917;19;20018;-82
2024/01/05 01:31:37;;;;;;;5.70;1.37;;;;;;;8.79;100.00;98542.81;12198643;19;20227;-82
2024/01/05 01:35:39;;;;;;;12.48;2.22;;;;;;;8.84;100.00;98545.59;12200137;19;20006;-82
2024/01/05 01:39:40;;;;;;;5.47;1.20;;;;;;;8.88;98.62;98538.44;12171275;19;20026;-82
2024/01/05 01:43:49;;;;;;;7.43;1.65;;;;;;;9.01;97.82;98529.72;12188894;19;20398;-82
2024/01/05 01:47:54;;;;;;;6.13;1.67;;;;;;;9.05;97.22;98525.31;12190233;19;20018;-83
2024/01/05 01:51:56;;;;;;;4.32;1.10;;;;;;;9.04;96.22;98522.81;12175617;19;20038;-82
2024/01/05 01:55:58;;;;;;;5.68;1.50;;;;;;;8.99;94.99;98515.41;12225193;19;20361;-81
2024/01/05 02:00:00;;;;;;;7.00;0.95;;;;;;;9.06;95.22;98504.97;12211923;19;20011;-78
2024/01/05 02:04:07;;;;;;;4.22;1.20;;;;;;;9.05;94.82;98511.59;12170418;19;20007;-79
2024/01/05 02:08:09;;;;;;;8.13;1.63;;;;;;;9.06;94.48;98493.97;12177778;19;20006;-80
2024/01/05 02:12:11;;;;;;;8.07;1.45;;;;;;;9.00;94.31;98495.06;12188988;19;20364;-82
2024/01/05 02:16:13;;;;;;;6.57;1.27;;;;;;;8.99;94.45;98496.19;12171390;19;20014;-80
2024/01/05 02:20:15;;;;;;;7.97;1.23;;;;;;;9.01;94.58;98485.75;12195457;19;20018;-80
2024/01/05 02:24:17;;;;;;;3.00;1.05;;;;;;;8.98;94.75;98474.47;12199232;19;20007;-78
2024/01/05 02:28:19;;;;;;;4.80;1.23;;;;;;;8.94;94.67;98465.94;12175002;19;20006;-80
2024/01/05 02:32:21;;;;;;;5.65;1.20;;;;;;;8.92;95.57;98454.38;12200581;19;20398;-77
2024/01/05 02:36:23;;;;;;;5.63;1.97;;;;;;;8.87;95.14;98457.97;12239849;19;20068;-79
2024/01/05 02:40:26;;;;;;;4.75;1.23;;;;;;;8.93;95.13;98450.56;12236160;19;20006;-78
2024/01/05 02:44:28;;;;;;;5.13;1.08;;;;;;;8.98;93.64;98450.56;12252185;19;20012;-77
2024/01/05 02:48:30;;;;;;;3.55;1.30;;;;;;;9.08;92.40;98441.50;12214414;19;20011;-82
2024/01/05 02:52:32;;;;;;;4.73;1.03;;;;;;;9.11;91.35;98436.28;12179277;19;20002;-80
2024/01/05 02:56:34;;;;;;;7.40;1.55;;;;;;;9.13;91.51;98430.50;12211358;19;20428;-81
2024/01/05 03:00:35;;;;;;;1.77;0.67;;;;;;;9.18;91.07;98429.69;12195921;19;20010;-82
2024/01/05 03:04:41;;;;;;;4.07;0.93;;;;;;;9.21;90.53;98415.41;12204057;19;20014;-81
2024/01/05 03:08:44;;;;;;;6.32;1.48;;;;;;;9.24;89.29;98414.84;12206538;19;20267;-80
2024/01/05 03:12:45;;;;;;;8.55;1.17;;;;;;;9.24;88.43;98403.84;12185296;19;20006;-79
2024/01/05 03:16:47;;;;;;;4.25;1.40;;;;;;;9.23;87.28;98404.97;12207055;19;20014;-80
2024/01/05 03:20:49;;;;;;;7.07;1.20;;;;;;;9.24;87.26;98401.13;12204057;19;20021;-80
2024/01/05 03:24:51;;;;;;;6.73;1.77;;;;;;;9.25;87.15;98394.50;12186042;19;20017;-79
2024/01/05 03:28:53;;;;;;;4.32;1.48;;;;;;;9.24;86.74;98393.69;12203718;19;20012;-80
2024/01/05 03:32:54;;;;;;;5.63;1.55;;;;;;;9.27;87.41;98395.88;12196614;19;20730;-80
2024/01/05 03:36:56;;;;;;;8.67;1.50;;;;;;;9.24;86.75;98387.38;12177616;19;20478;-80
2024/01/05 03:40:58;;;;;;;7.05;1.20;;;;;;;9.23;87.35;98382.97;12190455;19;20062;-80
2024/01/05 03:45:00;;;;;;;4.30;1.10;;;;;;;9.16;87.81;98385.16;12200963;19;20486;-80
2024/01/05 03:49:02;;;;;;;3.80;1.95;;;;;;;9.12;87.92;98382.16;12176083;19;20038;-83
2024/01/05 03:53:04;;;;;;;5.07;1.30;;;;;;;9.09;88.43;98385.44;12199838;19;20491;-78
2024/01/05 03:57:06;;;;;;;10.85;1.73;;;;;;;9.06;89.00;98378.56;12200102;19;20011;-81
2024/01/05 04:01:08;;;;;;;7.32;1.77;;;;;;;9.04;89.63;98380.78;12181360;19;20010;-77
2024/01/05 04:05:10;;;;;;;4.28;1.58;;;;;;;8.97;89.93;98385.72;12201449;19;20534;-78
2024/01/05 04:09:12;;;;;;;3.13;1.10;;;;;;;9.00;90.07;98379.69;12199899;19;20019;-81
2024/01/05 04:13:14;;;;;;;3.83;1.17;;;;;;;8.96;89.69;98378.59;12178532;19;19999;-80
2024/01/05 04:17:16;;;;;;;3.85;1.10;;;;;;;8.95;89.57;98368.69;12201378;19;20011;-79
2024/01/05 04:21:18;;;;;;;14.65;3.45;;;;;;;8.94;89.65;98361.53;12198114;19;20054;-82
2024/01/05 04:25:19;;;;;;;4.93;1.38;;;;;;;8.95;89.80;98357.69;12179468;19;20014;-81
2024/01/05 04:29:21;;;;;;;10.38;1.58;;;;;;;8.92;89.58;98354.66;12198501;19;20703;-82
2024/01/05 04:33:23;;;;;;;5.15;1.55;;;;;;;8.87;89.03;98344.53;12201253;19;20104;-83
2024/01/05 04:37:25;;;;;;;5.77;1.30;;;;;;;8.90;89.50;98336.56;12178423;19;20010;-82
2024/01/05 04:41:27;;;;;;;5.03;1.40;;;;;;;8.86;88.22;98334.63;12198456;19;20014;-81
2024/01/05 04:45:29;;;;;;;6.88;1.10;;;;;;;8.87;87.64;98336.28;12201302;19;19999;-82
2024/01/05 04:49:33;;;;;;;3.53;1.33;;;;;;;8.95;87.68;98334.91;12176988;19;20737;-81
2024/01/05 04:53:35;;;;;;;3.83;1.02;;;;;;;8.97;87.87;98339.00;12200156;19;20010;-82
2024/01/05 04:57:37;;;;;;;6.95;1.58;;;;;;;8.94;88.14;98345.06;12178001;19;20010;-81
2024/01/05 05:01:39;;;;;;;4.53;1.05;;;;;;;8.86;88.23;98345.59;12196984;19;20513;-81
2024/01/05 05:05:41;;;;;;;4.00;1.20;;;;;;;8.83;88.27;98346.16;12200155;19;20529;-82
2024/01/05 05:09:43;;;;;;;6.65;1.80;;;;;;;8.80;87.98;98342.03;12175445;19;20340;-81
2024/01/05 05:13:44;;;;;;;5.78;1.50;;;;;;;8.72;87.80;98347.28;12199626;19;20010;-83
2024/01/05 05:17:46;;;;;;;7.75;1.65;;;;;;;8.74;88.29;98343.13;12198504;19;20019;-84
2024/01/05 05:21:49;;;;;;;6.78;1.40;;;;;;;8.69;89.71;98343.16;12177022;19;20018;-82
2024/01/05 05:25:51;;;;;;;13.07;1.50;;;;;;;8.59;91.43;98345.88;12198041;19;20014;-82
2024/01/05 05:29:53;;;;;;;3.88;1.60;;;;;;;8.47;93.72;98343.38;12198483;19;20060;-82
2024/01/05 05:33:55;;;;;;;8.45;1.83;;;;;;;8.36;97.68;98341.69;12176257;19;20055;-83
2024/01/05 05:37:56;;;;;;;14.65;2.08;;;;;;;8.32;99.02;98335.09;12197375;19;20078;-83
2024/01/05 05:41:58;;;;;;;8.85;1.98;;;;;;;8.23;100.00;98329.28;12197630;19;20471;-81
2024/01/05 05:46:00;;;;;;;8.90;2.30;;;;;;;8.16;100.00;98343.28;12177584;19;20116;-83
2024/01/05 05:50:05;;;;;;;4.38;1.88;;;;;;;8.10;100.00;98340.81;12191812;19;20018;-83
2024/01/05 05:54:07;;;;;;;8.30;1.75;;;;;;;8.12;100.00;98341.34;12200614;19;20020;-82
2024/01/05 05:58:09;;;;;;;4.90;2.08;;;;;;;8.17;100.00;98344.09;12175569;19;20026;-81
2024/01/05 06:02:11;;;;;;;11.02;2.10;;;;;;;8.19;100.00;98348.22;12195029;19;20010;-81
2024/01/05 06:06:18;;;;;;;10.20;2.22;;;;;;;8.28;99.70;98347.72;12195709;19;20400;-81
2024/01/05 06:10:20;;;;;;;6.47;1.65;;;;;;;8.30;99.06;98354.56;12168227;19;20013;-82
2024/01/05 06:14:22;;;;;;;7.10;1.83;;;;;;;8.28;98.94;98354.00;12193966;19;20031;-81
2024/01/05 06:18:24;;;;;;;8.05;2.10;;;;;;;8.33;98.50;98355.94;12193758;19;20014;-83
2024/01/05 06:22:26;;;;;;;4.97;1.70;;;;;;;8.42;99.01;98370.84;12175949;19;20474;-84
2024/01/05 06:26:28;;;;;;;8.57;1.85;;;;;;;8.42;100.00;98381.81;12206479;19;19995;-83
2024/01/05 06:30:29;;;;;;;5.65;1.77;;;;;;;8.38;100.00;98377.91;12229729;19;20003;-83
2024/01/05 06:34:32;;;;;;;7.27;1.80;;;;;;;8.38;100.00;98378.75;12212031;19;20018;-83
2024/01/05 06:38:34;;;;;;;7.93;2.27;;;;;;;8.31;100.00;98374.63;12237285;19;20259;-84
2024/01/05 06:42:35;;;;;;;5.82;1.67;;;;;;;8.32;100.00;98389.97;12206637;19;20042;-84
2024/01/05 06:46:37;;;;;;;7.22;1.50;;;;;;;8.35;100.00;98382.00;12207324;19;20006;-83
2024/01/05 06:50:39;;;;;;;5.47;1.30;;;;;;;8.40;100.00;98386.75;12200139;19;20022;-84
2024/01/05 06:54:41;;;;;;;7.30;2.10;;;;;;;8.46;100.00;98391.16;12184221;19;20442;-82
2024/01/05 06:58:43;;;;;;;6.25;1.83;;;;;;;8.44;100.00;98391.41;12204876;19;20006;-81
2024/01/05 07:02:45;;;;;;;11.40;2.53;;;;;;;8.54;100.00;98396.13;12203171;19;20007;-81
2024/01/05 07:06:46;;;;;;;6.28;2.20;;;;;;;8.52;100.00;98392.81;12180791;19;20497;-83
2024/01/05 07:10:48;;;;;;;7.47;2.20;;;;;;;8.56;100.00;98380.19;12203864;19;20098;-84
2024/01/05 07:14:50;;;;;;;9.27;2.20;;;;;;;8.54;100.00;98376.91;12204619;19;20011;-84
2024/01/05 07:18:53;;;;;;;5.47;2.10;;;;;;;8.52;100.00;98378.25;12183203;19;20018;-85
2024/01/05 07:22:55;;;;;;;5.38;1.90;;;;;;;8.52;100.00;98383.75;12205949;19;20110;-85
2024/01/05 07:26:57;;;;;;;4.57;1.40;;;;;;;8.52;100.00;98381.00;12208217;19;20031;-86
2024/01/05 07:31:05;;;;;;;13.50;2.58;;;;;;;8.46;100.00;98382.91;12188629;19;20465;-85
2024/01/05 07:35:07;;;;;;;7.45;2.30;;;;;;;8.37;100.00;98381.75;12210340;19;20025;-86
2024/01/05 07:39:11;;;;;;;4.17;2.07;;;;;;;8.27;100.00;98381.72;12212106;19;21836;-83
2024/01/05 07:43:13;;;;;;;4.43;2.08;;;;;;;8.21;100.00;98387.22;12186238;19;20006;-84
2024/01/05 07:47:14;;;;;;;6.07;1.80;;;;;;;8.16;100.00;98376.19;12210000;19;20013;-86
2024/01/05 07:51:20;;;;;;;8.27;2.70;;;;;;;8.09;100.00;98370.16;12211904;19;20282;-84
2024/01/05 07:55:22;;;;;;;8.43;2.38;;;;;;;8.15;100.00;98379.19;12197345;19;19999;-84
2024/01/05 07:59:24;;;;;;;5.00;1.98;;;;;;;8.37;100.00;98387.25;12223559;19;20018;-86
2024/01/05 08:03:26;;;;;;;5.43;2.17;;;;;;;8.52;100.00;98395.56;12223747;19;20017;-84
2024/01/05 08:07:28;;;;;;;9.20;2.23;;;;;;;8.66;100.00;98393.94;12198728;19;20189;-84
2024/01/05 08:11:30;;;;;;;5.55;1.77;;;;;;;8.83;100.00;98385.47;12206181;19;20015;-88
2024/01/05 08:15:32;;;;;;;6.83;2.03;;;;;;;8.92;100.00;98377.47;12216980;19;20006;-86
2024/01/05 08:19:33;;;;;;;3.47;1.43;;;;;;;9.04;100.00;98380.78;12189266;19;20019;-88
2024/01/05 08:23:36;;;;;;;5.27;2.10;;;;;;;9.12;100.00;98377.47;12205049;19;20010;-86
2024/01/05 08:27:39;;;;;;;8.50;2.40;;;;;;;9.27;100.00;98370.31;12210860;19;20033;-86
2024/01/05 08:31:41;;;;;;;4.20;1.90;;;;;;;9.31;100.00;98358.50;12190125;19;20011;-86
2024/01/05 08:35:44;;;;;;;7.18;1.85;;;;;;;9.33;100.00;98355.47;12213584;19;20015;-86
2024/01/05 08:39:45;;;;;;;6.78;2.10;;;;;;;9.43;100.00;98347.22;12188293;19;20039;-87
2024/01/05 08:43:47;;;;;;;5.80;1.70;;;;;;;9.42;100.00;98340.06;12215573;19;20010;-85
2024/01/05 08:47:49;;;;;;;5.07;1.48;;;;;;;9.32;99.73;98327.16;12207495;19;20007;-87
2024/01/05 08:51:51;;;;;;;5.88;1.70;;;;;;;9.34;99.92;98324.16;12180622;19;20006;-89
2024/01/05 08:55:53;;;;;;;4.68;1.38;;;;;;;9.38;99.26;98332.66;12206620;19;20018;-86
2024/01/05 08:59:55;;;;;;;6.03;1.63;;;;;;;9.41;97.90;98326.59;12206559;19;20003;-83
2024/01/05 09:03:56;;;;;;;5.25;1.35;;;;;;;9.45;97.24;98322.19;12182202;19;20037;-83
2024/01/05 09:07:58;;;;;;;7.20;2.17;;;;;;;9.49;97.14;98328.78;12204121;19;20082;-84
2024/01/05 09:12:02;;;;;;;5.00;1.50;;;;;;;9.63;95.78;98338.06;12199860;19;20375;-84
2024/01/05 09:16:04;;;;;;;3.40;1.23;;;;;;;9.74;94.39;98327.88;12179173;19;20465;-83
2024/01/05 09:20:07;;;;;;;4.35;1.33;;;;;;;9.93;93.66;98334.38;12200853;19;20418;-83
2024/01/05 09:24:09;;;;;;;9.35;2.30;;;;;;;10.22;92.23;98334.53;12204575;19;20285;-84
2024/01/05 09:28:11;;;;;;;6.97;1.33;;;;;;;10.48;90.33;98332.47;12181886;19;20018;-83
2024/01/05 09:32:15;;;;;;;5.68;1.20;;;;;;;10.74;87.93;98351.59;12202934;19;20035;-83
2024/01/05 09:36:17;;;;;;;7.90;1.88;;;;;;;11.10;85.73;98360.41;12202516;19;20013;-84
2024/01/05 09:40:20;;;;;;;3.50;1.33;;;;;;;11.34;82.22;98365.97;12182124;19;20014;-82
2024/01/05 09:44:24;;;;;;;;;;;;;;;11.38;80.35;98374.50;12211431;19;20010;-83
2024/01/05 09:48:32;;;;;;;;;;;;;;;11.14;81.45;98378.00;12258090;19;19919;-84
2024/01/05 09:52:44;;;;;;;5.00;1.27;;;;;;;10.88;82.18;98373.81;12241507;19;19906;-83
2024/01/05 09:56:48;;;;;;;5.25;1.90;;;;;;;10.68;84.18;98380.31;12254342;19;20014;-85
2024/01/05 10:00:52;;;;;;;15.18;2.47;;;;;;;10.66;84.78;98388.84;12209353;19;20007;-84
2024/01/05 10:04:55;;;;;;;4.80;1.80;;;;;;;10.71;85.59;98386.06;12186006;19;20019;-84
2024/01/05 10:08:58;;;;;;;4.93;1.77;;;;;;;10.72;86.09;98387.69;12205007;19;20005;-83
2024/01/05 10:13:07;;;;;;;6.60;1.48;;;;;;;10.64;87.10;98390.22;12203116;19;20010;-84
2024/01/05 10:17:09;;;;;;;10.48;1.88;;;;;;;10.61;87.35;98394.38;12183301;19;20478;-84
2024/01/05 10:21:11;;;;;;;;;;;;;;;10.54;87.78;98402.13;12204583;19;20035;-84
2024/01/05 10:25:15;;;;;;;7.35;2.00;;;;;;;10.48;88.10;98387.56;12181330;19;19927;-83
2024/01/05 10:29:17;;;;;;;3.13;1.52;;;;;;;10.36;88.93;98387.09;12203321;19;20018;-84
2024/01/05 10:33:19;;;;;;;8.53;1.73;;;;;;;10.40;89.42;98387.34;12201309;19;20050;-84
2024/01/05 10:37:21;;;;;;;7.70;1.97;;;;;;;10.50;89.38;98381.78;12181762;19;22776;-85
2024/01/05 10:41:24;;;;;;;4.90;1.80;;;;;;;10.52;88.89;98389.75;12201083;19;20038;-84
2024/01/05 10:45:27;;;;;;;4.53;1.58;;;;;;;10.45;88.79;98399.16;12203368;19;20014;-84
2024/01/05 10:49:30;;;;;;;5.30;1.70;;;;;;;10.49;88.97;98402.97;12176596;19;20043;-84
2024/01/05 10:53:34;;;;;;;4.70;1.60;;;;;;;10.47;88.83;98399.69;12198907;19;20018;-83
2024/01/05 10:57:41;;;;;;;4.57;1.67;;;;;;;10.62;89.09;98392.44;12200603;19;20002;-83
2024/01/05 11:01:45;;;;;;;3.60;1.50;;;;;;;10.64;88.31;98387.47;12180909;19;20031;-83
2024/01/05 11:05:47;;;;;;;5.22;2.15;;;;;;;10.65;87.80;98381.69;12200999;19;20002;-85
2024/01/05 11:10:20;;;;;;;7.07;2.05;;;;;;;10.79;88.43;98368.06;12195830;19;20070;-84
2024/01/05 11:14:34;;;;;;;4.97;1.70;;;;;;;10.91;86.11;98374.03;12178228;19;20015;-80
2024/01/05 11:18:55;;;;;;;4.97;1.58;;;;;;;11.11;84.66;98361.22;12209340;19;20035;-83
2024/01/05 11:22:58;;;;;;;4.03;1.38;;;;;;;11.28;84.12;98356.13;12189477;19;20006;-83
2024/01/05 11:27:38;;;;;;;5.22;1.75;;;;;;;11.23;83.23;98358.91;12208568;19;20014;-83
2024/01/05 11:31:46;;;;;;;7.35;1.90;;;;;;;11.33;83.08;98352.47;12187715;19;20006;-84
2024/01/05 11:35:50;;;;;;;7.07;1.70;;;;;;;11.27;83.17;98346.19;12208028;19;20043;-83
2024/01/05 11:39:54;;;;;;;6.32;1.67;;;;;;;11.27;83.56;98348.13;12206793;19;20006;-84
2024/01/05 11:43:56;;;;;;;8.00;1.77;;;;;;;11.25;83.76;98351.19;12186209;19;20967;-83
2024/01/05 11:47:58;;;;;;;6.97;1.65;;;;;;;11.18;83.60;98337.75;12212533;19;20014;-83
2024/01/05 11:52:02;;;;;;;3.30;1.50;;;;;;;11.24;83.69;98343.19;12207008;19;20062;-84
2024/01/05 11:56:16;;;;;;;5.97;1.30;;;;;;;11.23;83.61;98330.53;12186524;19;20014;-83
2024/01/05 12:00:19;;;;;;;5.28;1.25;;;;;;;11.25;84.26;98331.06;12209161;19;20014;-84
2024/01/05 12:04:21;;;;;;;3.53;1.35;;;;;;;11.38;82.99;98339.47;12211058;19;20018;-83
2024/01/05 12:08:24;;;;;;;8.60;1.80;;;;;;;11.47;82.57;98334.13;12183997;19;20068;-83
2024/01/05 12:12:26;;;;;;;3.25;1.30;;;;;;;11.45;81.40;98327.25;12207397;19;20015;-85
2024/01/05 12:16:28;;;;;;;5.72;1.83;;;;;;;11.32;81.60;98329.59;12208956;19;20470;-83
2024/01/05 12:20:30;;;;;;;3.40;1.30;;;;;;;11.46;82.45;98328.91;12182256;19;20024;-84
2024/01/05 12:24:32;;;;;;;4.35;1.92;;;;;;;11.50;81.18;98324.44;12204706;19;20034;-83
2024/01/05 12:28:36;;;;;;;2.67;1.20;;;;;;;11.46;81.38;98329.75;12196027;19;20020;-83
2024/01/05 12:32:38;;;;;;;3.83;1.75;;;;;;;11.57;80.96;98333.19;12202069;19;20006;-84
2024/01/05 12:36:41;;;;;;;5.85;1.77;;;;;;;11.72;80.75;98333.06;12204737;19;20838;-83
2024/01/05 12:40:43;;;;;;;4.65;1.63;;;;;;;11.88;80.90;98324.63;12182577;19;20011;-82
2024/01/05 12:44:44;;;;;;;5.05;1.83;;;;;;;11.88;80.86;98327.38;12205171;19;20006;-83
2024/01/05 12:48:46;;;;;;;6.07;1.42;;;;;;;11.84;80.67;98322.41;12202788;19;20002;-82
2024/01/05 12:52:49;;;;;;;6.03;1.35;;;;;;;11.95;80.56;98316.78;12180776;19;20604;-83
2024/01/05 12:56:53;;;;;;;4.93;1.40;;;;;;;12.11;79.20;98329.28;12202722;19;20047;-84
2024/01/05 13:00:59;;;;;;;3.33;1.35;;;;;;;12.05;78.37;98320.25;12203372;19;20032;-82
2024/01/05 13:05:00;;;;;;;4.88;1.40;;;;;;;11.98;78.49;98318.97;12180834;19;20010;-83
2024/01/05 13:09:02;;;;;;;3.85;1.40;;;;;;;11.91;78.05;98318.50;12202040;19;19999;-83
2024/01/05 13:13:04;;;;;;;3.30;1.47;;;;;;;12.00;78.28;98317.53;12198616;19;20035;-83
2024/01/05 13:17:06;;;;;;;3.65;1.13;;;;;;;12.06;77.98;98313.59;12179437;19;20014;-84
2024/01/05 13:21:08;;;;;;;5.23;1.77;;;;;;;11.94;77.74;98320.69;12202790;19;20018;-83
2024/01/05 13:25:11;;;;;;;4.85;1.23;;;;;;;11.92;78.32;98314.63;12202151;19;20003;-83
2024/01/05 13:29:13;;;;;;;4.53;1.50;;;;;;;11.94;78.27;98313.22;12182484;19;20007;-85
2024/01/05 13:33:15;;;;;;;5.75;1.10;;;;;;;11.85;77.23;98313.03;12200519;19;20017;-83
2024/01/05 13:37:17;;;;;;;3.90;0.88;;;;;;;11.58;75.36;98315.53;12205008;19;20074;-84
2024/01/05 13:41:19;;;;;;;4.65;1.05;;;;;;;11.40;75.64;98317.94;12178117;19;20010;-83
2024/01/05 13:45:21;;;;;;;2.90;0.95;;;;;;;11.40;74.89;98323.44;12200647;19;20017;-83
2024/01/05 13:49:22;;;;;;;3.73;1.03;;;;;;;11.29;75.45;98323.84;12198582;19;20109;-83
2024/01/05 13:53:27;;;;;;;3.38;0.90;;;;;;;11.17;75.13;98327.81;12176395;19;20019;-83
2024/01/05 13:57:29;;;;;;;2.75;0.93;;;;;;;11.13;75.19;98323.19;12200939;19;20702;-83
2024/01/05 14:01:31;;;;;;;1.38;0.80;;;;;;;11.08;74.84;98326.78;12199279;19;20379;-83
2024/01/05 14:05:33;;;;;;;2.38;0.70;;;;;;;11.04;74.11;98336.75;12177721;19;20006;-83
2024/01/05 14:09:35;;;;;;;2.53;0.98;;;;;;;10.97;74.00;98324.41;12198718;19;20112;-83
2024/01/05 14:13:37;;;;;;;2.97;0.90;;;;;;;10.90;74.25;98325.56;12176413;19;20015;-84
2024/01/05 14:17:38;;;;;;;3.22;0.88;;;;;;;10.81;74.71;98329.22;12196621;19;20019;-83
2024/01/05 14:21:41;;;;;;;4.53;1.23;;;;;;;10.61;75.49;98332.94;12197332;19;20010;-82
2024/01/05 14:25:43;;;;;;;2.78;0.95;;;;;;;10.48;76.27;98335.25;12177853;19;20021;-84
2024/01/05 14:29:45;;;;;;;4.68;1.25;;;;;;;10.39;76.50;98333.38;12196507;19;20010;-82
2024/01/05 14:33:46;;;;;;;4.00;0.95;;;;;;;10.29;77.09;98334.25;12198574;19;20593;-83
2024/01/05 14:37:48;;;;;;;2.97;1.47;;;;;;;10.26;77.89;98329.28;12176282;19;20011;-83
2024/01/05 14:41:50;;;;;;;2.05;0.98;;;;;;;10.19;77.31;98345.28;12195317;19;20047;-82
2024/01/05 14:45:52;;;;;;;1.95;1.00;;;;;;;10.12;77.76;98339.28;12199054;19;20014;-83
2024/01/05 14:49:53;;;;;;;2.20;0.90;;;;;;;10.01;78.58;98347.56;12179461;19;20102;-82
2024/01/05 14:53:55;;;;;;;3.50;1.10;;;;;;;9.94;79.26;98349.81;12212333;19;20561;-82
2024/01/05 14:58:00;;;;;;;3.58;2.25;;;;;;;9.78;79.95;98351.78;12211968;19;20006;-83
2024/01/05 15:02:03;;;;;;;3.97;1.00;;;;;;;9.71;80.22;98362.25;12188513;19;20099;-83
2024/01/05 15:06:05;;;;;;;4.43;1.15;;;;;;;9.55;80.82;98364.25;12208701;19;20006;-83
2024/01/05 15:10:08;;;;;;;7.15;1.20;;;;;;;9.40;82.01;98367.03;12208544;19;20003;-82
2024/01/05 15:14:10;;;;;;;3.57;1.40;;;;;;;9.29;82.49;98368.13;12188174;19;20010;-83
2024/01/05 15:18:11;;;;;;;3.88;1.33;;;;;;;9.18;83.43;98372.81;12207747;19;21201;-83
2024/01/05 15:22:13;;;;;;;3.10;1.10;;;;;;;9.09;83.89;98378.03;12209710;19;20010;-82
2024/01/05 15:26:15;;;;;;;1.23;0.63;;;;;;;8.97;84.64;98379.41;12188135;19;20017;-82
2024/01/05 15:30:17;;;;;;;3.03;0.90;;;;;;;8.85;85.80;98387.91;12207802;19;20038;-82
2024/01/05 15:34:19;;;;;;;2.43;1.07;;;;;;;8.76;86.94;98395.88;12210597;19;20046;-82
2024/01/05 15:38:21;;;;;;;2.40;0.97;;;;;;;8.75;87.13;98398.91;12188820;19;20025;-82
2024/01/05 15:42:23;;;;;;;3.58;1.00;;;;;;;8.69;86.88;98398.06;12213096;19;20010;-82
2024/01/05 15:46:25;;;;;;;1.35;0.80;;;;;;;8.63;87.27;98399.97;12214257;19;20010;-82
2024/01/05 15:50:29;;;;;;;2.22;0.65;;;;;;;8.57;87.34;98412.03;12217290;19;20022;-81
2024/01/05 15:54:31;;;;;;;4.50;1.30;;;;;;;8.51;86.45;98404.06;12244323;19;20645;-82
2024/01/05 15:58:33;;;;;;;5.93;1.02;;;;;;;8.48;85.56;98405.44;12250024;19;20014;-82
2024/01/05 16:02:36;;;;;;;1.52;0.65;;;;;;;8.43;85.41;98406.22;12221321;19;20005;-82
2024/01/05 16:06:38;;;;;;;1.00;0.60;;;;;;;8.32;85.49;98414.66;12252870;19;20010;-81
2024/01/05 16:10:39;;;;;;;4.95;1.20;;;;;;;8.25;85.63;98411.38;12212684;19;19998;-82
2024/01/05 16:14:46;;;;;;;1.58;0.73;;;;;;;8.18;85.69;98406.94;12251438;19;20042;-82
2024/01/05 16:18:49;;;;;;;2.75;1.10;;;;;;;8.08;85.84;98411.56;12238489;19;20007;-82
2024/01/05 16:22:51;;;;;;;;;;;;;;;7.95;86.34;98429.34;12193086;19;20014;-82
2024/01/05 16:26:54;;;;;;;4.70;0.88;;;;;;;7.85;86.54;98434.75;12215181;19;19930;-82
2024/01/05 16:30:56;;;;;;;2.47;1.00;;;;;;;7.81;86.71;98439.94;12212600;19;20007;-82
2024/01/05 16:34:58;;;;;;;4.23;1.17;;;;;;;7.76;87.01;98451.72;12188869;19;20014;-82
2024/01/05 16:39:00;;;;;;;2.13;1.00;;;;;;;7.75;87.00;98451.97;12214213;19;20544;-82
2024/01/05 16:43:02;;;;;;;2.85;0.98;;;;;;;7.64;87.93;98448.34;12213057;19;20561;-83
2024/01/05 16:47:04;;;;;;;3.03;1.00;;;;;;;7.61;88.10;98450.78;12189443;19;20372;-83
2024/01/05 16:51:05;;;;;;;5.07;1.35;;;;;;;7.56;88.30;98448.84;12206583;19;20366;-82
2024/01/05 16:55:07;;;;;;;3.95;0.82;;;;;;;7.47;89.14;98448.50;12211885;19;20542;-82
2024/01/05 16:59:09;;;;;;;5.97;1.50;;;;;;;7.39;90.24;98451.72;12190654;19;20003;-83
2024/01/05 17:03:13;;;;;;;6.38;1.92;;;;;;;7.29;91.83;98447.00;12243587;19;20002;-83
2024/01/05 17:07:16;;;;;;;4.65;1.90;;;;;;;7.23;93.21;98448.06;12273795;19;21071;-82
2024/01/05 17:11:18;;;;;;;3.63;1.93;;;;;;;7.20;93.80;98448.56;12243383;19;20007;-81
2024/01/05 17:15:20;;;;;;;4.70;1.80;;;;;;;7.16;95.02;98460.31;12243431;19;20007;-82
2024/01/05 17:19:22;;;;;;;4.93;1.30;;;;;;;7.15;95.20;98450.44;12210963;19;20360;-83
2024/01/05 17:23:24;;;;;;;4.13;1.60;;;;;;;7.12;94.66;98451.78;12187413;19;20623;-82
2024/01/05 17:27:26;;;;;;;3.30;1.53;;;;;;;7.12;94.40;98453.72;12208389;19;20078;-82
2024/01/05 17:31:28;;;;;;;3.43;1.30;;;;;;;7.14;93.67;98446.03;12202882;19;20805;-81
2024/01/05 17:35:30;;;;;;;5.47;1.40;;;;;;;7.12;93.46;98448.22;12179046;19;20052;-82
2024/01/05 17:39:31;;;;;;;5.47;1.50;;;;;;;7.10;92.99;98437.50;12198273;19;20010;-80
2024/01/05 17:43:33;;;;;;;3.92;1.20;;;;;;;7.08;92.71;98443.28;12203590;19;20035;-83
2024/01/05 17:47:35;;;;;;;5.82;1.42;;;;;;;7.05;92.30;98449.28;12178385;19;20011;-83
2024/01/05 17:51:40;;;;;;;4.20;1.20;;;;;;;7.05;92.15;98454.75;12197899;19;20011;-83
2024/01/05 17:55:42;;;;;;;6.13;2.28;;;;;;;7.04;91.58;98455.00;12181056;19;21488;-83
2024/01/05 17:59:44;;;;;;;4.57;1.80;;;;;;;6.97;92.69;98448.91;12200341;19;20031;-83
2024/01/05 18:03:46;;;;;;;4.47;1.42;;;;;;;6.90;93.71;98456.50;12201200;19;20165;-83
2024/01/05 18:07:52;;;;;;;4.30;1.50;;;;;;;6.81;95.50;98459.72;12181850;19;20006;-83
2024/01/05 18:11:54;;;;;;;6.07;2.47;;;;;;;6.74;97.90;98464.56;12199330;19;20010;-82
2024/01/05 18:15:56;;;;;;;6.20;2.75;;;;;;;6.69;98.28;98464.50;12193982;19;20010;-82
2024/01/05 18:19:58;;;;;;;4.72;2.10;;;;;;;6.64;98.66;98472.69;12176280;19;20018;-83
2024/01/05 18:24:03;;;;;;;8.45;2.20;;;;;;;6.61;99.70;98479.50;12204845;19;20035;-82
2024/01/05 18:28:05;;;;;;;6.10;2.30;;;;;;;6.66;100.00;98486.09;12208421;19;20018;-83
2024/01/05 18:32:08;;;;;;;3.33;1.50;;;;;;;6.61;100.00;98490.44;12185788;19;20035;-83
2024/01/05 18:36:10;;;;;;;4.93;2.15;;;;;;;6.58;100.00;98499.16;12212750;19;20030;-83
2024/01/05 18:40:12;;;;;;;7.70;2.13;;;;;;;6.55;100.00;98494.19;12219243;19;20031;-82
2024/01/05 18:44:14;;;;;;;7.60;2.93;;;;;;;6.54;100.00;98498.03;12193513;19;20014;-83
2024/01/05 18:48:16;;;;;;;4.78;2.25;;;;;;;6.49;100.00;98494.41;12222008;19;20003;-82
2024/01/05 18:52:18;;;;;;;12.93;3.47;;;;;;;6.44;100.00;98497.06;12238739;19;20110;-82
2024/01/05 18:56:19;;;;;;;7.45;3.63;;;;;;;6.38;100.00;98504.38;12215362;19;20018;-82